createdAt,value
2023-04-11T00:00:22.321Z,2.80
2023-04-11T00:01:23.773Z,4.00
2023-04-11T00:02:25.244Z,4.67
2023-04-11T00:03:27.754Z,2.53
2023-04-11T00:04:29.559Z,3.90
2023-04-11T00:05:33.773Z,2.40
2023-04-11T00:06:35.252Z,3.50
2023-04-11T00:07:36.633Z,4.13
2023-04-11T00:08:37.941Z,2.90
2023-04-11T00:09:39.340Z,3.10
2023-04-11T00:10:40.692Z,2.83
2023-04-11T00:11:42.125Z,4.37
2023-04-11T00:12:43.468Z,2.27
2023-04-11T00:13:48.631Z,3.87
2023-04-11T00:14:50.085Z,3.73
2023-04-11T00:15:55.315Z,2.53
2023-04-11T00:16:56.835Z,3.90
2023-04-11T00:17:58.558Z,3.40
2023-04-11T00:19:00.477Z,3.63
2023-04-11T00:20:08.194Z,3.33
2023-04-11T00:21:10.488Z,4.93
2023-04-11T00:22:12.224Z,2.90
2023-04-11T00:23:13.538Z,3.17
2023-04-11T00:24:14.981Z,4.37
2023-04-11T00:25:16.346Z,4.47
2023-04-11T00:26:17.664Z,2.73
2023-04-11T00:27:21.814Z,4.87
2023-04-11T00:28:23.360Z,3.53
2023-04-11T00:29:24.708Z,4.33
2023-04-11T00:30:26.147Z,3.00
2023-04-11T00:31:27.450Z,5.00
2023-04-11T00:32:28.948Z,4.33
2023-04-11T00:33:31.314Z,5.07
2023-04-11T00:34:34.158Z,4.60
2023-04-11T00:35:37.748Z,5.70
2023-04-11T00:36:41.867Z,3.23
2023-04-11T00:37:44.405Z,3.27
2023-04-11T00:38:46.309Z,3.13
2023-04-11T00:39:50.444Z,3.43
2023-04-11T00:40:51.858Z,4.97
2023-04-11T00:41:53.199Z,2.30
2023-04-11T00:42:55.107Z,3.97
2023-04-11T00:43:57.930Z,2.67
2023-04-11T00:44:59.283Z,2.80
2023-04-11T00:46:00.968Z,2.87
2023-04-11T00:47:03.242Z,2.17
2023-04-11T00:48:05.141Z,2.70
2023-04-11T00:49:06.529Z,2.23
2023-04-11T00:50:08.097Z,2.30
2023-04-11T00:51:09.433Z,2.27
2023-04-11T00:52:12.731Z,3.53
2023-04-11T00:53:14.591Z,1.87
2023-04-11T00:54:17.075Z,2.17
2023-04-11T00:55:19.241Z,1.00
2023-04-11T00:56:20.834Z,1.80
2023-04-11T00:57:22.790Z,2.40
2023-04-11T00:58:24.175Z,1.77
2023-04-11T00:59:27.481Z,0.97
2023-04-11T01:00:32.870Z,2.07
2023-04-11T01:01:36.348Z,1.50
2023-04-11T01:02:38.534Z,3.83
2023-04-11T01:03:41.268Z,2.13
2023-04-11T01:04:43.777Z,1.20
2023-04-11T01:05:45.843Z,2.97
2023-04-11T01:06:49.890Z,2.03
2023-04-11T01:07:51.739Z,1.87
2023-04-11T01:08:53.470Z,1.53
2023-04-11T01:09:55.418Z,2.57
2023-04-11T01:10:56.737Z,1.70
2023-04-11T01:11:59.516Z,1.97
2023-04-11T01:13:01.223Z,2.43
2023-04-11T01:14:03.125Z,1.50
2023-04-11T01:15:05.064Z,2.60
2023-04-11T01:16:06.790Z,3.17
2023-04-11T01:17:12.612Z,2.40
2023-04-11T01:18:15.372Z,2.20
2023-04-11T01:19:18.612Z,1.27
2023-04-11T01:20:20.022Z,2.37
2023-04-11T01:21:22.246Z,2.07
2023-04-11T01:22:24.400Z,2.30
2023-04-11T01:23:26.603Z,2.17
2023-04-11T01:24:28.442Z,2.97
2023-04-11T01:25:30.580Z,1.83
2023-04-11T01:26:32.042Z,4.03
2023-04-11T01:27:34.095Z,1.70
2023-04-11T01:28:35.547Z,3.47
2023-04-11T01:29:38.277Z,1.60
2023-04-11T01:30:39.629Z,1.93
2023-04-11T01:31:41.262Z,1.57
2023-04-11T01:32:42.782Z,1.87
2023-04-11T01:33:44.214Z,2.67
2023-04-11T01:34:46.924Z,2.07
2023-04-11T01:35:48.355Z,1.20
2023-04-11T01:36:49.712Z,2.27
2023-04-11T01:37:51.378Z,1.23
2023-04-11T01:38:53.071Z,2.50
2023-04-11T01:39:54.580Z,2.10
2023-04-11T01:40:57.383Z,3.23
2023-04-11T01:41:59.142Z,2.03
2023-04-11T01:43:01.938Z,3.73
2023-04-11T01:44:03.997Z,3.03
2023-04-11T01:45:06.922Z,1.80
2023-04-11T01:46:08.972Z,4.20
2023-04-11T01:47:11.519Z,3.13
2023-04-11T01:48:14.711Z,3.23
2023-04-11T01:49:17.551Z,3.97
2023-04-11T01:50:19.072Z,3.97
2023-04-11T01:51:20.799Z,3.90
2023-04-11T01:52:22.167Z,2.70
2023-04-11T01:53:23.495Z,3.50
2023-04-11T01:54:25.622Z,7.07
2023-04-11T01:55:27.145Z,4.03
2023-04-11T01:56:28.488Z,2.63
2023-04-11T01:57:29.814Z,3.17
2023-04-11T01:58:31.169Z,4.23
2023-04-11T01:59:32.488Z,4.10
2023-04-11T02:00:36.950Z,2.67
2023-04-11T02:01:38.394Z,2.30
2023-04-11T02:02:39.977Z,2.60
2023-04-11T02:03:41.728Z,2.40
2023-04-11T02:04:43.156Z,2.77
2023-04-11T02:05:44.471Z,3.30
2023-04-11T02:06:46.027Z,2.87
2023-04-11T02:07:47.387Z,1.80
2023-04-11T02:08:52.473Z,3.07
2023-04-11T02:09:53.929Z,3.70
2023-04-11T02:10:55.322Z,1.60
2023-04-11T02:11:56.973Z,2.97
2023-04-11T02:12:58.291Z,2.40
2023-04-11T02:13:59.836Z,2.40
2023-04-11T02:15:01.282Z,3.10
2023-04-11T02:16:09.700Z,2.07
2023-04-11T02:17:11.579Z,2.93
2023-04-11T02:18:13.046Z,1.43
2023-04-11T02:19:14.432Z,2.90
2023-04-11T02:20:16.797Z,2.73
2023-04-11T02:21:18.290Z,2.17
2023-04-11T02:22:19.620Z,2.07
2023-04-11T02:23:21.846Z,2.90
2023-04-11T02:24:24.376Z,2.17
2023-04-11T02:25:25.786Z,3.13
2023-04-11T02:26:27.229Z,2.40
2023-04-11T02:27:31.406Z,2.17
2023-04-11T02:28:32.753Z,3.30
2023-04-11T02:29:34.213Z,4.30
2023-04-11T02:30:35.863Z,1.77
2023-04-11T02:31:37.939Z,1.97
2023-04-11T02:32:39.368Z,1.40
2023-04-11T02:33:41.615Z,2.43
2023-04-11T02:34:42.960Z,3.50
2023-04-11T02:35:44.335Z,1.77
2023-04-11T02:36:45.864Z,2.37
2023-04-11T02:37:47.200Z,2.83
2023-04-11T02:38:48.494Z,2.07
2023-04-11T02:39:49.816Z,2.30
2023-04-11T02:40:51.177Z,1.97
2023-04-11T02:41:52.471Z,2.07
2023-04-11T02:42:53.849Z,2.63
2023-04-11T02:43:55.861Z,1.90
2023-04-11T02:44:57.294Z,3.30
2023-04-11T02:46:11.716Z,3.00
2023-04-11T02:47:13.933Z,1.70
2023-04-11T02:48:15.496Z,3.67
2023-04-11T02:49:20.004Z,3.20
2023-04-11T02:50:22.312Z,2.27
2023-04-11T02:51:25.884Z,3.60
2023-04-11T02:52:27.204Z,2.03
2023-04-11T02:53:28.540Z,2.00
2023-04-11T02:54:30.128Z,2.00
2023-04-11T02:55:35.013Z,2.97
2023-04-11T02:56:38.925Z,4.07
2023-04-11T02:57:40.605Z,2.47
2023-04-11T02:58:46.210Z,2.90
2023-04-11T02:59:50.902Z,2.37
2023-04-11T03:00:58.947Z,2.03
2023-04-11T03:02:01.551Z,3.83
2023-04-11T03:03:06.409Z,2.97
2023-04-11T03:04:13.026Z,2.37
2023-04-11T03:05:34.182Z,2.37
2023-04-11T03:06:36.118Z,2.20
2023-04-11T03:07:40.586Z,2.80
2023-04-11T03:08:43.834Z,2.87
2023-04-11T03:09:45.237Z,1.90
2023-04-11T03:10:46.621Z,2.60
2023-04-11T03:11:48.882Z,4.03
2023-04-11T03:12:50.762Z,2.50
2023-04-11T03:13:52.150Z,2.83
2023-04-11T03:14:53.607Z,2.13
2023-04-11T03:15:55.998Z,3.00
2023-04-11T03:17:00.708Z,2.63
2023-04-11T03:18:05.513Z,2.47
2023-04-11T03:19:07.309Z,2.20
2023-04-11T03:20:09.307Z,3.77
2023-04-11T03:21:11.679Z,4.57
2023-04-11T03:22:17.365Z,3.67
2023-04-11T03:23:18.750Z,4.93
2023-04-11T03:24:20.094Z,7.20
2023-04-11T03:25:22.466Z,2.90
2023-04-11T03:26:28.432Z,2.43
2023-04-11T03:27:33.709Z,2.87
2023-04-11T03:28:37.933Z,2.33
2023-04-11T03:29:39.399Z,2.83
2023-04-11T03:30:48.719Z,2.83
2023-04-11T03:31:53.910Z,2.67
2023-04-11T03:32:55.427Z,2.33
2023-04-11T03:33:56.827Z,1.73
2023-04-11T03:35:00.177Z,2.00
2023-04-11T03:36:01.629Z,2.47
2023-04-11T03:37:03.075Z,1.77
2023-04-11T03:38:05.089Z,2.43
2023-04-11T03:39:06.560Z,2.90
2023-04-11T03:40:08.504Z,4.67
2023-04-11T03:41:12.002Z,2.43
2023-04-11T03:42:13.576Z,3.80
2023-04-11T03:43:16.788Z,2.50
2023-04-11T03:44:18.178Z,3.10
2023-04-11T03:45:22.765Z,2.47
2023-04-11T03:46:27.660Z,2.93
2023-04-11T03:47:29.241Z,4.13
2023-04-11T03:48:31.067Z,2.27
2023-04-11T03:49:36.661Z,3.67
2023-04-11T03:50:38.799Z,2.27
2023-04-11T03:51:40.822Z,3.03
2023-04-11T03:52:42.196Z,2.77
2023-04-11T03:53:47.721Z,1.83
2023-04-11T03:54:57.946Z,3.13
2023-04-11T03:56:01.476Z,3.67
2023-04-11T03:57:09.237Z,2.83
2023-04-11T03:58:11.620Z,3.30
2023-04-11T03:59:16.434Z,4.90
2023-04-11T04:00:28.815Z,4.20
2023-04-11T04:01:42.533Z,3.23
2023-04-11T04:02:44.294Z,3.40
2023-04-11T04:03:51.398Z,2.73
2023-04-11T04:04:58.600Z,2.33
2023-04-11T04:06:03.742Z,2.87
2023-04-11T04:07:05.245Z,3.20
2023-04-11T04:08:14.945Z,2.97
2023-04-11T04:09:23.219Z,2.60
2023-04-11T04:10:28.695Z,3.47
2023-04-11T04:11:30.259Z,3.50
2023-04-11T04:12:32.184Z,2.40
2023-04-11T04:13:47.392Z,2.73
2023-04-11T04:14:52.033Z,3.17
2023-04-11T04:15:53.538Z,2.70
2023-04-11T04:16:59.276Z,2.73
2023-04-11T04:18:03.349Z,3.87
2023-04-11T04:19:16.532Z,2.63
2023-04-11T04:20:20.234Z,4.70
2023-04-11T04:21:26.929Z,2.63
2023-04-11T04:22:31.748Z,2.73
2023-04-11T04:23:36.056Z,6.23
2023-04-11T04:24:58.064Z,3.33
2023-04-11T04:26:03.425Z,2.50
2023-04-11T04:27:09.069Z,1.90
2023-04-11T04:28:22.342Z,4.33
2023-04-11T04:29:29.332Z,3.53
2023-04-11T04:30:31.468Z,2.67
2023-04-11T04:31:41.060Z,2.57
2023-04-11T04:32:44.022Z,2.37
2023-04-11T04:33:49.462Z,2.20
2023-04-11T04:34:55.879Z,2.23
2023-04-11T04:36:02.196Z,1.73
2023-04-11T04:37:05.816Z,2.60
2023-04-11T04:38:18.041Z,2.87
2023-04-11T04:39:30.269Z,3.30
2023-04-11T04:40:32.806Z,3.27
2023-04-11T04:41:39.439Z,3.27
2023-04-11T04:42:44.088Z,4.73
2023-04-11T04:43:45.823Z,3.53
2023-04-11T04:44:57.395Z,2.73
2023-04-11T04:45:59.060Z,2.57
2023-04-11T04:47:07.347Z,1.57
2023-04-11T04:48:08.963Z,4.20
2023-04-11T04:49:10.659Z,2.63
2023-04-11T04:50:12.412Z,1.93
2023-04-11T04:51:14.245Z,2.43
2023-04-11T04:52:16.090Z,2.17
2023-04-11T04:53:17.458Z,4.00
2023-04-11T04:54:23.724Z,2.07
2023-04-11T04:55:25.977Z,2.87
2023-04-11T04:56:30.867Z,2.30
2023-04-11T04:57:33.961Z,3.90
2023-04-11T04:58:41.631Z,3.07
2023-04-11T04:59:47.673Z,2.30
2023-04-11T05:00:56.282Z,2.57
2023-04-11T05:02:03.526Z,1.97
2023-04-11T05:03:05.856Z,2.70
2023-04-11T05:04:34.451Z,2.33
2023-04-11T05:05:37.020Z,2.83
2023-04-11T05:06:41.755Z,2.77
2023-04-11T05:07:43.650Z,2.03
2023-04-11T05:08:45.433Z,3.37
2023-04-11T05:09:49.632Z,2.37
2023-04-11T05:11:00.824Z,2.63
2023-04-11T05:12:07.211Z,2.53
2023-04-11T05:13:14.262Z,3.93
2023-04-11T05:14:15.734Z,2.33
2023-04-11T05:15:17.701Z,3.07
2023-04-11T05:16:21.004Z,1.87
2023-04-11T05:17:27.777Z,2.50
2023-04-11T05:18:30.558Z,5.37
2023-04-11T05:19:32.368Z,2.87
2023-04-11T05:20:33.989Z,2.50
2023-04-11T05:21:36.412Z,3.33
2023-04-11T05:22:38.128Z,2.80
2023-04-11T05:23:47.742Z,4.13
2023-04-11T05:24:52.165Z,3.47
2023-04-11T05:25:54.169Z,6.50
2023-04-11T05:26:56.605Z,3.00
2023-04-11T05:27:58.106Z,4.83
2023-04-11T05:29:04.727Z,3.27
2023-04-11T05:30:07.082Z,2.47
2023-04-11T05:31:14.671Z,2.63
2023-04-11T05:32:16.417Z,2.63
2023-04-11T05:33:17.778Z,3.27
2023-04-11T05:34:21.846Z,2.53
2023-04-11T05:35:24.430Z,2.27
2023-04-11T05:36:28.784Z,3.73
2023-04-11T05:37:31.481Z,3.87
2023-04-11T05:38:33.366Z,2.93
2023-04-11T05:39:34.794Z,2.97
2023-04-11T05:40:39.068Z,3.77
2023-04-11T05:41:40.513Z,3.20
2023-04-11T05:42:42.284Z,5.37
2023-04-11T05:43:43.691Z,2.40
2023-04-11T05:44:45.015Z,1.70
2023-04-11T05:45:47.766Z,4.27
2023-04-11T05:46:50.909Z,2.63
2023-04-11T05:47:52.975Z,3.17
2023-04-11T05:48:58.012Z,3.90
2023-04-11T05:49:59.651Z,2.13
2023-04-11T05:51:01.971Z,2.50
2023-04-11T05:52:03.954Z,7.13
2023-04-11T05:53:05.403Z,3.00
2023-04-11T05:54:07.122Z,2.53
2023-04-11T05:55:09.264Z,6.17
2023-04-11T05:56:12.434Z,3.47
2023-04-11T05:57:14.040Z,4.97
2023-04-11T05:58:15.670Z,3.83
2023-04-11T05:59:19.693Z,3.63
2023-04-11T06:00:24.630Z,2.97
2023-04-11T06:01:26.141Z,2.33
2023-04-11T06:02:31.014Z,3.80
2023-04-11T06:03:32.938Z,3.30
2023-04-11T06:04:36.741Z,3.17
2023-04-11T06:05:38.904Z,2.43
2023-04-11T06:06:40.231Z,2.40
2023-04-11T06:07:41.647Z,3.03
2023-04-11T06:08:43.071Z,2.40
2023-04-11T06:09:44.542Z,3.20
2023-04-11T06:10:46.051Z,4.07
2023-04-11T06:11:47.412Z,4.57
2023-04-11T06:12:48.869Z,3.50
2023-04-11T06:13:50.576Z,4.13
2023-04-11T06:14:54.617Z,4.47
2023-04-11T06:15:56.390Z,4.37
2023-04-11T06:16:57.811Z,4.57
2023-04-11T06:17:59.194Z,4.13
2023-04-11T06:19:00.583Z,6.57
2023-04-11T06:20:03.633Z,4.20
2023-04-11T06:21:06.879Z,2.53
2023-04-11T06:22:08.238Z,4.47
2023-04-11T06:23:09.527Z,2.77
2023-04-11T06:24:11.058Z,3.37
2023-04-11T06:25:12.653Z,4.70
2023-04-11T06:26:14.024Z,4.43
2023-04-11T06:27:17.835Z,5.27
2023-04-11T06:28:19.137Z,3.67
2023-04-11T06:29:20.569Z,3.77
2023-04-11T06:30:21.898Z,2.93
2023-04-11T06:31:23.215Z,5.13
2023-04-11T06:32:25.528Z,2.47
2023-04-11T06:33:26.897Z,3.87
2023-04-11T06:34:28.368Z,3.07
2023-04-11T06:35:29.772Z,4.77
2023-04-11T06:36:31.449Z,4.37
2023-04-11T06:37:32.801Z,4.53
2023-04-11T06:38:36.530Z,4.50
2023-04-11T06:39:37.832Z,2.83
2023-04-11T06:40:39.153Z,4.03
2023-04-11T06:41:40.460Z,2.30
2023-04-11T06:42:42.069Z,4.43
2023-04-11T06:43:44.549Z,2.30
2023-04-11T06:44:46.337Z,4.40
2023-04-11T06:45:49.541Z,2.80
2023-04-11T06:46:50.916Z,3.07
2023-04-11T06:47:52.308Z,3.40
2023-04-11T06:48:53.654Z,3.80
2023-04-11T06:49:55.632Z,5.50
2023-04-11T06:50:56.965Z,3.80
2023-04-11T06:51:59.396Z,4.27
2023-04-11T06:53:00.908Z,2.97
2023-04-11T06:54:02.763Z,3.27
2023-04-11T06:55:04.744Z,2.83
2023-04-11T06:56:06.596Z,3.17
2023-04-11T06:57:10.087Z,4.07
2023-04-11T06:58:11.406Z,3.73
2023-04-11T06:59:13.245Z,4.43
2023-04-11T07:00:16.280Z,4.43
2023-04-11T07:01:20.471Z,6.30
2023-04-11T07:02:24.910Z,6.67
2023-04-11T07:03:26.675Z,4.20
2023-04-11T07:04:28.321Z,3.10
2023-04-11T07:05:29.816Z,4.73
2023-04-11T07:06:31.699Z,3.50
2023-04-11T07:07:32.997Z,5.53
2023-04-11T07:08:34.304Z,4.87
2023-04-11T07:09:35.876Z,6.67
2023-04-11T07:10:37.203Z,5.13
2023-04-11T07:11:38.733Z,5.60
2023-04-11T07:12:40.132Z,4.43
2023-04-11T07:13:41.503Z,5.33
2023-04-11T07:14:42.784Z,4.73
2023-04-11T07:15:44.231Z,6.93
2023-04-11T07:16:45.953Z,4.67
2023-04-11T07:17:48.272Z,7.63
2023-04-11T07:18:50.502Z,4.83
2023-04-11T07:19:51.895Z,5.33
2023-04-11T07:20:53.724Z,4.20
2023-04-11T07:21:55.127Z,6.73
2023-04-11T07:22:56.711Z,5.97
2023-04-11T07:23:58.086Z,6.07
2023-04-11T07:24:59.749Z,5.90
2023-04-11T07:26:01.094Z,4.87
2023-04-11T07:27:02.477Z,7.07
2023-04-11T07:28:08.476Z,5.03
2023-04-11T07:29:11.605Z,6.47
2023-04-11T07:30:14.649Z,6.43
2023-04-11T07:31:17.955Z,7.13
2023-04-11T07:32:19.334Z,7.87
2023-04-11T07:33:21.381Z,6.27
2023-04-11T07:34:22.772Z,5.43
2023-04-11T07:35:24.157Z,5.47
2023-04-11T07:36:26.666Z,7.13
2023-04-11T07:37:30.215Z,6.57
2023-04-11T07:38:31.703Z,6.53
2023-04-11T07:39:33.337Z,5.07
2023-04-11T07:40:34.668Z,4.30
2023-04-11T07:41:36.584Z,6.37
2023-04-11T07:42:37.961Z,4.80
2023-04-11T07:43:39.466Z,5.37
2023-04-11T07:44:41.030Z,7.13
2023-04-11T07:45:42.960Z,4.63
2023-04-11T07:46:44.287Z,7.03
2023-04-11T07:47:45.661Z,5.63
2023-04-11T07:48:46.949Z,7.33
2023-04-11T07:49:48.243Z,6.73
2023-04-11T07:50:49.525Z,5.40
2023-04-11T07:51:50.846Z,7.07
2023-04-11T07:52:52.226Z,6.27
2023-04-11T07:53:54.340Z,5.57
2023-04-11T07:54:56.140Z,4.63
2023-04-11T07:55:57.460Z,6.20
2023-04-11T07:56:59.212Z,5.90
2023-04-11T07:58:00.540Z,6.07
2023-04-11T07:59:02.158Z,6.57
2023-04-11T08:00:04.333Z,7.67
2023-04-11T08:01:23.182Z,7.13
2023-04-11T08:02:24.728Z,6.63
2023-04-11T08:03:27.131Z,6.20
2023-04-11T08:04:32.619Z,6.67
2023-04-11T08:05:34.787Z,4.97
2023-04-11T08:06:36.269Z,6.30
2023-04-11T08:07:37.563Z,5.83
2023-04-11T08:08:38.932Z,6.30
2023-04-11T08:09:42.378Z,9.63
2023-04-11T08:10:43.714Z,7.00
2023-04-11T08:11:45.191Z,4.93
2023-04-11T08:12:46.592Z,6.37
2023-04-11T08:13:47.952Z,4.37
2023-04-11T08:14:49.294Z,7.27
2023-04-11T08:15:50.986Z,8.33
2023-04-11T08:16:53.164Z,6.80
2023-04-11T08:17:57.542Z,5.53
2023-04-11T08:18:59.066Z,7.77
2023-04-11T08:20:02.217Z,5.00
2023-04-11T08:21:03.793Z,7.27
2023-04-11T08:22:05.086Z,4.23
2023-04-11T08:23:08.552Z,6.97
2023-04-11T08:24:09.959Z,5.03
2023-04-11T08:25:11.743Z,6.57
2023-04-11T08:26:13.283Z,4.03
2023-04-11T08:27:14.635Z,5.47
2023-04-11T08:28:16.094Z,5.13
2023-04-11T08:29:17.487Z,4.90
2023-04-11T08:30:20.537Z,5.47
2023-04-11T08:31:21.973Z,3.83
2023-04-11T08:32:23.551Z,6.60
2023-04-11T08:33:26.036Z,3.97
2023-04-11T08:34:27.343Z,3.30
2023-04-11T08:35:28.718Z,5.30
2023-04-11T08:36:30.115Z,5.73
2023-04-11T08:37:31.529Z,5.60
2023-04-11T08:38:32.868Z,4.97
2023-04-11T08:39:34.148Z,4.90
2023-04-11T08:40:35.653Z,6.30
2023-04-11T08:41:37.490Z,5.60
2023-04-11T08:42:38.849Z,4.87
2023-04-11T08:43:40.325Z,7.07
2023-04-11T08:44:41.638Z,6.40
2023-04-11T08:45:43.054Z,4.20
2023-04-11T08:46:44.677Z,6.47
2023-04-11T08:47:46.148Z,3.70
2023-04-11T08:48:47.523Z,4.70
2023-04-11T08:49:49.158Z,5.00
2023-04-11T08:50:50.615Z,5.63
2023-04-11T08:51:53.515Z,4.07
2023-04-11T08:52:55.344Z,6.17
2023-04-11T08:53:59.552Z,6.30
2023-04-11T08:55:01.563Z,5.20
2023-04-11T08:56:03.433Z,5.20
2023-04-11T08:57:04.783Z,7.80
2023-04-11T08:58:06.543Z,8.70
2023-04-11T08:59:07.878Z,6.70
2023-04-11T09:00:15.862Z,4.50
2023-04-11T09:01:27.634Z,5.17
2023-04-11T09:02:29.053Z,8.53
2023-04-11T09:03:49.186Z,6.07
2023-04-11T09:04:51.593Z,8.57
2023-04-11T09:05:54.323Z,9.17
2023-04-11T09:06:57.077Z,7.87
2023-04-11T09:08:01.380Z,6.03
2023-04-11T09:09:08.058Z,5.37
2023-04-11T09:10:19.845Z,7.77
2023-04-11T09:11:21.433Z,10.60
2023-04-11T09:12:29.585Z,5.90
2023-04-11T09:13:31.144Z,6.30
2023-04-11T09:14:32.730Z,7.47
2023-04-11T09:15:34.278Z,5.30
2023-04-11T09:16:35.927Z,8.07
2023-04-11T09:17:40.789Z,8.37
2023-04-11T09:18:43.440Z,5.30
2023-04-11T09:19:47.502Z,6.73
2023-04-11T09:21:00.928Z,7.27
2023-04-11T09:22:04.990Z,5.70
2023-04-11T09:23:06.509Z,5.03
2023-04-11T09:24:14.521Z,4.23
2023-04-11T09:25:16.342Z,5.03
2023-04-11T09:26:27.955Z,6.47
2023-04-11T09:27:29.295Z,7.57
2023-04-11T09:28:39.628Z,7.17
2023-04-11T09:29:47.344Z,5.50
2023-04-11T09:30:52.538Z,4.57
2023-04-11T09:31:53.879Z,7.30
2023-04-11T09:32:55.377Z,8.63
2023-04-11T09:33:59.147Z,6.00
2023-04-11T09:35:16.985Z,6.07
2023-04-11T09:36:19.886Z,6.50
2023-04-11T09:37:21.586Z,8.67
2023-04-11T09:38:35.815Z,5.47
2023-04-11T09:39:37.204Z,4.70
2023-04-11T09:40:42.475Z,5.40
2023-04-11T09:41:44.191Z,6.07
2023-04-11T09:42:46.723Z,5.20
2023-04-11T09:43:52.127Z,6.20
2023-04-11T09:44:53.427Z,5.43
2023-04-11T09:46:18.377Z,7.10
2023-04-11T09:47:20.080Z,6.97
2023-04-11T09:48:26.856Z,8.53
2023-04-11T09:49:38.159Z,5.67
2023-04-11T09:50:39.830Z,5.23
2023-04-11T09:51:42.228Z,4.17
2023-04-11T09:52:44.226Z,6.40
2023-04-11T09:53:45.871Z,4.77
2023-04-11T09:54:47.879Z,5.13
2023-04-11T09:55:49.272Z,4.40
2023-04-11T09:56:50.764Z,4.23
2023-04-11T09:57:52.888Z,5.80
2023-04-11T09:58:54.627Z,4.23
2023-04-11T09:59:56.311Z,9.23
2023-04-11T10:00:59.173Z,6.23
2023-04-11T10:02:00.757Z,5.60
2023-04-11T10:03:02.618Z,6.00
2023-04-11T10:04:04.396Z,5.77
2023-04-11T10:05:07.540Z,3.67
2023-04-11T10:06:12.323Z,4.10
2023-04-11T10:07:14.773Z,5.03
2023-04-11T10:08:42.565Z,5.93
2023-04-11T10:09:45.596Z,4.47
2023-04-11T10:10:47.116Z,6.87
2023-04-11T10:11:48.503Z,5.87
2023-04-11T10:12:50.582Z,7.53
2023-04-11T10:13:52.009Z,7.23
2023-04-11T10:14:56.139Z,5.27
2023-04-11T10:16:16.005Z,5.30
2023-04-11T10:17:23.502Z,5.23
2023-04-11T10:18:25.416Z,3.60
2023-04-11T10:19:27.193Z,5.87
2023-04-11T10:20:31.581Z,5.07
2023-04-11T10:21:33.086Z,3.73
2023-04-11T10:22:40.511Z,4.03
2023-04-11T10:24:00.610Z,4.97
2023-04-11T10:25:20.860Z,4.50
2023-04-11T10:26:42.175Z,4.17
2023-04-11T10:27:48.674Z,4.57
2023-04-11T10:28:50.109Z,4.93
2023-04-11T10:29:52.875Z,5.70
2023-04-11T10:31:01.960Z,5.60
2023-04-11T10:32:09.805Z,5.47
2023-04-11T10:33:11.506Z,6.80
2023-04-11T10:34:16.890Z,4.27
2023-04-11T10:35:18.146Z,4.10
2023-04-11T10:36:22.131Z,4.80
2023-04-11T10:37:29.815Z,3.10
2023-04-11T10:38:37.476Z,4.23
2023-04-11T10:39:47.779Z,4.83
2023-04-11T10:41:08.067Z,4.70
2023-04-11T10:42:28.230Z,4.53
2023-04-11T10:43:29.686Z,6.17
2023-04-11T10:44:31.253Z,4.17
2023-04-11T10:45:34.125Z,3.87
2023-04-11T10:46:43.424Z,5.57
2023-04-11T10:47:57.116Z,3.07
2023-04-11T10:49:02.314Z,3.70
2023-04-11T10:50:03.916Z,3.43
2023-04-11T10:51:22.349Z,4.67
2023-04-11T10:52:23.977Z,3.70
2023-04-11T10:53:36.616Z,5.57
2023-04-11T10:54:38.072Z,3.20
2023-04-11T10:55:47.029Z,4.07
2023-04-11T10:56:51.473Z,3.57
2023-04-11T10:58:08.411Z,4.57
2023-04-11T10:59:28.376Z,3.33
2023-04-11T11:00:30.659Z,2.47
2023-04-11T11:02:39.529Z,3.93
2023-04-11T11:03:51.120Z,4.83
2023-04-11T11:04:52.891Z,2.73
2023-04-11T11:05:58.880Z,5.13
2023-04-11T11:07:01.517Z,5.57
2023-04-11T11:08:02.977Z,4.20
2023-04-11T11:09:19.944Z,3.07
2023-04-11T11:10:37.354Z,3.87
2023-04-11T11:11:38.675Z,6.30
2023-04-11T11:12:53.661Z,4.10
2023-04-11T11:13:58.726Z,4.27
2023-04-11T11:15:12.102Z,2.23
2023-04-11T11:16:15.679Z,2.33
2023-04-11T11:17:17.348Z,4.13
2023-04-11T11:18:18.723Z,3.27
2023-04-11T11:19:20.088Z,2.90
2023-04-11T11:20:21.460Z,2.37
2023-04-11T11:21:28.881Z,3.93
2023-04-11T11:22:30.582Z,5.17
2023-04-11T11:23:33.524Z,2.73
2023-04-11T11:24:35.726Z,2.27
2023-04-11T11:25:37.150Z,4.37
2023-04-11T11:26:42.565Z,4.03
2023-04-11T11:27:43.942Z,2.80
2023-04-11T11:28:46.316Z,4.20
2023-04-11T11:29:47.627Z,3.57
2023-04-11T11:30:54.855Z,4.40
2023-04-11T11:31:57.535Z,4.07
2023-04-11T11:32:59.035Z,3.37
2023-04-11T11:34:18.244Z,5.20
2023-04-11T11:35:22.167Z,4.60
2023-04-11T11:36:23.548Z,8.30
2023-04-11T11:37:24.954Z,4.47
2023-04-11T11:38:27.508Z,5.80
2023-04-11T11:39:30.349Z,2.93
2023-04-11T11:40:31.851Z,4.60
2023-04-11T11:41:34.540Z,4.13
2023-04-11T11:42:36.583Z,4.43
2023-04-11T11:43:38.737Z,4.57
2023-04-11T11:44:41.181Z,5.73
2023-04-11T11:45:42.913Z,4.77
2023-04-11T11:47:00.584Z,4.63
2023-04-11T11:48:02.023Z,6.20
2023-04-11T11:49:05.449Z,3.70
2023-04-11T11:50:07.075Z,4.03
2023-04-11T11:51:08.483Z,5.37
2023-04-11T11:52:09.825Z,4.40
2023-04-11T11:53:15.463Z,3.53
2023-04-11T11:54:17.097Z,3.73
2023-04-11T11:55:18.393Z,5.23
2023-04-11T11:56:20.872Z,7.23
2023-04-11T11:57:25.927Z,5.13
2023-04-11T11:58:27.299Z,3.93
2023-04-11T11:59:28.738Z,6.10
2023-04-11T12:00:31.532Z,5.00
2023-04-11T12:01:33.469Z,5.70
2023-04-11T12:02:36.074Z,3.90
2023-04-11T12:03:38.133Z,5.27
2023-04-11T12:04:39.820Z,4.80
2023-04-11T12:05:41.496Z,4.00
2023-04-11T12:06:43.809Z,4.73
2023-04-11T12:07:45.322Z,5.37
2023-04-11T12:08:51.747Z,5.53
2023-04-11T12:09:59.401Z,4.27
2023-04-11T12:11:02.555Z,3.97
2023-04-11T12:12:08.394Z,3.23
2023-04-11T12:13:18.927Z,2.60
2023-04-11T12:14:23.477Z,3.97
2023-04-11T12:15:24.948Z,5.50
2023-04-11T12:16:26.484Z,3.70
2023-04-11T12:17:31.868Z,5.37
2023-04-11T12:18:33.350Z,4.17
2023-04-11T12:19:34.663Z,2.87
2023-04-11T12:20:36.058Z,6.40
2023-04-11T12:21:37.401Z,2.17
2023-04-11T12:22:38.737Z,3.20
2023-04-11T12:23:40.123Z,4.53
2023-04-11T12:24:41.465Z,4.90
2023-04-11T12:25:42.873Z,4.47
2023-04-11T12:27:05.788Z,2.60
2023-04-11T12:28:08.124Z,3.37
2023-04-11T12:29:09.408Z,3.77
2023-04-11T12:30:11.659Z,4.50
2023-04-11T12:31:13.560Z,5.03
2023-04-11T12:32:14.885Z,3.60
2023-04-11T12:33:16.405Z,4.23
2023-04-11T12:34:17.817Z,4.03
2023-04-11T12:35:19.218Z,3.33
2023-04-11T12:36:21.692Z,4.20
2023-04-11T12:37:23.601Z,4.13
2023-04-11T12:38:24.919Z,2.53
2023-04-11T12:39:26.499Z,4.63
2023-04-11T12:40:29.700Z,5.07
2023-04-11T12:41:32.537Z,4.23
2023-04-11T12:42:56.251Z,5.60
2023-04-11T12:44:01.757Z,5.33
2023-04-11T12:45:03.261Z,6.90
2023-04-11T12:46:05.625Z,6.50
2023-04-11T12:47:08.969Z,6.40
2023-04-11T12:48:10.532Z,5.90
2023-04-11T12:49:11.910Z,4.27
2023-04-11T12:50:13.351Z,6.27
2023-04-11T12:51:14.698Z,3.10
2023-04-11T12:52:17.266Z,5.47
2023-04-11T12:53:18.684Z,5.63
2023-04-11T12:54:20.284Z,6.30
2023-04-11T12:55:22.288Z,5.93
2023-04-11T12:56:23.641Z,5.90
2023-04-11T12:57:25.061Z,3.80
2023-04-11T12:58:26.379Z,3.23
2023-04-11T12:59:28.361Z,4.90
2023-04-11T13:00:30.611Z,2.40
2023-04-11T13:01:31.990Z,3.70
2023-04-11T13:02:41.998Z,5.13
2023-04-11T13:03:44.127Z,2.30
2023-04-11T13:04:45.909Z,3.40
2023-04-11T13:05:47.331Z,3.37
2023-04-11T13:06:48.698Z,5.83
2023-04-11T13:07:50.101Z,4.03
2023-04-11T13:08:51.439Z,4.67
2023-04-11T13:09:53.170Z,7.97
2023-04-11T13:10:55.912Z,3.83
2023-04-11T13:11:57.913Z,6.03
2023-04-11T13:13:05.402Z,6.43
2023-04-11T13:14:13.393Z,3.90
2023-04-11T13:15:15.689Z,4.37
2023-04-11T13:16:17.109Z,4.10
2023-04-11T13:17:18.498Z,5.20
2023-04-11T13:18:19.834Z,3.97
2023-04-11T13:19:21.618Z,4.97
2023-04-11T13:20:22.990Z,3.53
2023-04-11T13:21:24.822Z,5.20
2023-04-11T13:22:27.080Z,4.33
2023-04-11T13:23:28.395Z,6.20
2023-04-11T13:24:31.519Z,4.50
2023-04-11T13:25:32.819Z,5.77
2023-04-11T13:26:34.570Z,5.47
2023-04-11T13:27:36.208Z,2.80
2023-04-11T13:28:40.566Z,3.50
2023-04-11T13:29:41.896Z,5.63
2023-04-11T13:30:43.201Z,3.10
2023-04-11T13:31:44.581Z,4.43
2023-04-11T13:32:46.101Z,2.40
2023-04-11T13:33:48.088Z,3.80
2023-04-11T13:34:49.471Z,6.57
2023-04-11T13:35:50.745Z,4.40
2023-04-11T13:36:52.075Z,2.87
2023-04-11T13:37:53.448Z,4.00
2023-04-11T13:38:55.450Z,3.97
2023-04-11T13:39:56.918Z,2.70
2023-04-11T13:40:58.238Z,2.70
2023-04-11T13:41:59.650Z,3.40
2023-04-11T13:43:01.012Z,3.83
2023-04-11T13:44:02.322Z,4.63
2023-04-11T13:45:04.414Z,4.10
2023-04-11T13:46:05.979Z,3.47
2023-04-11T13:47:07.356Z,2.63
2023-04-11T13:48:08.705Z,2.67
2023-04-11T13:49:10.224Z,3.50
2023-04-11T13:50:11.743Z,2.53
2023-04-11T13:51:13.416Z,4.20
2023-04-11T13:52:14.739Z,3.23
2023-04-11T13:53:16.079Z,3.73
2023-04-11T13:54:17.444Z,2.97
2023-04-11T13:55:18.986Z,2.80
2023-04-11T13:56:20.568Z,3.90
2023-04-11T13:57:22.267Z,3.23
2023-04-11T13:58:23.573Z,3.10
2023-04-11T13:59:27.148Z,2.53
2023-04-11T14:00:29.077Z,3.03
2023-04-11T14:01:30.505Z,3.13
2023-04-11T14:02:32.309Z,3.63
2023-04-11T14:03:34.053Z,5.47
2023-04-11T14:04:35.657Z,4.47